sensor_id;sensor_type;location;lat;lon;timestamp;pressure;altitude;pressure_sealevel;temperature
70123;BMP280;57489;37.404;24.920;2023-05-10T00:03:35;100176.03;;;22.15
70123;BMP280;57489;37.404;24.920;2023-05-10T00:08:36;100185.16;;;22.14
70123;BMP280;57489;37.404;24.920;2023-05-10T00:13:36;100182.84;;;22.13
70123;BMP280;57489;37.404;24.920;2023-05-10T00:18:37;100169.47;;;22.13
70123;BMP280;57489;37.404;24.920;2023-05-10T00:23:37;100174.03;;;22.12
70123;BMP280;57489;37.404;24.920;2023-05-10T00:28:38;100161.78;;;22.11
70123;BMP280;57489;37.404;24.920;2023-05-10T00:33:38;100158.31;;;22.11
70123;BMP280;57489;37.404;24.920;2023-05-10T00:38:39;100144.84;;;22.07
70123;BMP280;57489;37.404;24.920;2023-05-10T00:43:39;100145.19;;;22.06
70123;BMP280;57489;37.404;24.920;2023-05-10T00:48:39;100136.84;;;22.07
70123;BMP280;57489;37.404;24.920;2023-05-10T00:53:40;100142.53;;;22.06
70123;BMP280;57489;37.404;24.920;2023-05-10T00:58:41;100136.41;;;22.05
70123;BMP280;57489;37.404;24.920;2023-05-10T01:03:42;100132.19;;;22.04
70123;BMP280;57489;37.404;24.920;2023-05-10T01:08:43;100130.16;;;22.01
70123;BMP280;57489;37.404;24.920;2023-05-10T01:13:55;100123.25;;;22.00
70123;BMP280;57489;37.404;24.920;2023-05-10T01:18:56;100117.47;;;21.98
70123;BMP280;57489;37.404;24.920;2023-05-10T01:24:14;100128.16;;;21.98
70123;BMP280;57489;37.404;24.920;2023-05-10T01:40:02;100126.63;;;21.97
70123;BMP280;57489;37.404;24.920;2023-05-10T01:45:18;100136.06;;;21.94
70123;BMP280;57489;37.404;24.920;2023-05-10T01:50:26;100123.81;;;21.93
70123;BMP280;57489;37.404;24.920;2023-05-10T01:55:32;100125.72;;;21.93
70123;BMP280;57489;37.404;24.920;2023-05-10T02:00:34;100117.59;;;21.89
70123;BMP280;57489;37.404;24.920;2023-05-10T02:05:36;100115.25;;;21.88
70123;BMP280;57489;37.404;24.920;2023-05-10T02:10:39;100127.50;;;21.89
70123;BMP280;57489;37.404;24.920;2023-05-10T02:15:41;100122.81;;;21.86
70123;BMP280;57489;37.404;24.920;2023-05-10T02:20:43;100120.16;;;21.86
70123;BMP280;57489;37.404;24.920;2023-05-10T02:25:46;100115.94;;;21.85
70123;BMP280;57489;37.404;24.920;2023-05-10T02:30:48;100119.03;;;21.87
70123;BMP280;57489;37.404;24.920;2023-05-10T02:35:50;100122.38;;;21.84
70123;BMP280;57489;37.404;24.920;2023-05-10T02:40:52;100113.56;;;21.83
70123;BMP280;57489;37.404;24.920;2023-05-10T02:45:53;100115.16;;;21.84
70123;BMP280;57489;37.404;24.920;2023-05-10T02:50:55;100115.16;;;21.84
70123;BMP280;57489;37.404;24.920;2023-05-10T02:55:59;100137.16;;;21.81
70123;BMP280;57489;37.404;24.920;2023-05-10T03:01:00;100140.06;;;21.76
70123;BMP280;57489;37.404;24.920;2023-05-10T03:06:01;100140.84;;;21.76
70123;BMP280;57489;37.404;24.920;2023-05-10T03:16:15;100145.09;;;21.77
70123;BMP280;57489;37.404;24.920;2023-05-10T03:21:17;100152.19;;;21.73
70123;BMP280;57489;37.404;24.920;2023-05-10T03:26:24;100148.41;;;21.74
70123;BMP280;57489;37.404;24.920;2023-05-10T03:31:26;100156.75;;;21.73
70123;BMP280;57489;37.404;24.920;2023-05-10T03:36:26;100160.97;;;21.74
70123;BMP280;57489;37.404;24.920;2023-05-10T03:41:27;100164.88;;;21.76
70123;BMP280;57489;37.404;24.920;2023-05-10T03:46:27;100159.53;;;21.76
70123;BMP280;57489;37.404;24.920;2023-05-10T03:51:28;100168.22;;;21.73
70123;BMP280;57489;37.404;24.920;2023-05-10T03:56:28;100172.88;;;21.76
70123;BMP280;57489;37.404;24.920;2023-05-10T04:01:28;100176.13;;;21.82
70123;BMP280;57489;37.404;24.920;2023-05-10T04:06:29;100187.59;;;21.83
70123;BMP280;57489;37.404;24.920;2023-05-10T04:11:30;100186.94;;;21.86
70123;BMP280;57489;37.404;24.920;2023-05-10T04:16:30;100200.63;;;21.84
70123;BMP280;57489;37.404;24.920;2023-05-10T04:21:31;100198.59;;;21.81
70123;BMP280;57489;37.404;24.920;2023-05-10T04:26:31;100203.94;;;21.81
70123;BMP280;57489;37.404;24.920;2023-05-10T04:31:31;100202.63;;;21.87
70123;BMP280;57489;37.404;24.920;2023-05-10T04:36:32;100204.19;;;21.88
70123;BMP280;57489;37.404;24.920;2023-05-10T04:41:32;100214.56;;;21.90
70123;BMP280;57489;37.404;24.920;2023-05-10T04:46:33;100228.78;;;21.94
70123;BMP280;57489;37.404;24.920;2023-05-10T04:51:33;100236.25;;;22.00
70123;BMP280;57489;37.404;24.920;2023-05-10T04:56:34;100226.16;;;22.06
70123;BMP280;57489;37.404;24.920;2023-05-10T05:01:34;100234.72;;;22.12
70123;BMP280;57489;37.404;24.920;2023-05-10T05:06:35;100226.72;;;22.12
70123;BMP280;57489;37.404;24.920;2023-05-10T05:11:35;100224.50;;;22.14
70123;BMP280;57489;37.404;24.920;2023-05-10T05:16:36;100243.53;;;22.12
70123;BMP280;57489;37.404;24.920;2023-05-10T05:21:36;100241.06;;;22.07
70123;BMP280;57489;37.404;24.920;2023-05-10T05:26:37;100246.41;;;22.07
70123;BMP280;57489;37.404;24.920;2023-05-10T05:31:37;100241.06;;;22.07
70123;BMP280;57489;37.404;24.920;2023-05-10T05:36:38;100230.38;;;22.07
70123;BMP280;57489;37.404;24.920;2023-05-10T05:41:38;100239.28;;;22.11
70123;BMP280;57489;37.404;24.920;2023-05-10T05:46:38;100233.59;;;22.13
70123;BMP280;57489;37.404;24.920;2023-05-10T05:51:39;100241.75;;;22.16
70123;BMP280;57489;37.404;24.920;2023-05-10T05:56:39;100270.47;;;22.19
70123;BMP280;57489;37.404;24.920;2023-05-10T06:01:40;100256.69;;;22.17
70123;BMP280;57489;37.404;24.920;2023-05-10T06:06:40;100259.09;;;22.22
70123;BMP280;57489;37.404;24.920;2023-05-10T06:11:41;100263.16;;;22.28
70123;BMP280;57489;37.404;24.920;2023-05-10T06:16:41;100258.69;;;22.33
70123;BMP280;57489;37.404;24.920;2023-05-10T06:21:42;100261.78;;;22.35
70123;BMP280;57489;37.404;24.920;2023-05-10T06:26:42;100254.47;;;22.44
70123;BMP280;57489;37.404;24.920;2023-05-10T06:31:42;100273.97;;;22.44
70123;BMP280;57489;37.404;24.920;2023-05-10T06:36:43;100268.59;;;22.56
70123;BMP280;57489;37.404;24.920;2023-05-10T06:41:43;100274.38;;;22.71
70123;BMP280;57489;37.404;24.920;2023-05-10T06:46:44;100271.34;;;22.97
70123;BMP280;57489;37.404;24.920;2023-05-10T06:51:44;100281.81;;;23.02
70123;BMP280;57489;37.404;24.920;2023-05-10T06:56:45;100276.91;;;23.04
70123;BMP280;57489;37.404;24.920;2023-05-10T07:01:45;100291.38;;;23.03
70123;BMP280;57489;37.404;24.920;2023-05-10T07:06:45;100306.13;;;23.09
70123;BMP280;57489;37.404;24.920;2023-05-10T07:11:46;100324.13;;;23.24
70123;BMP280;57489;37.404;24.920;2023-05-10T07:16:46;100327.38;;;23.58
70123;BMP280;57489;37.404;24.920;2023-05-10T07:21:47;100319.72;;;23.72
70123;BMP280;57489;37.404;24.920;2023-05-10T07:26:47;100323.69;;;23.78
70123;BMP280;57489;37.404;24.920;2023-05-10T07:31:48;100324.50;;;23.79
70123;BMP280;57489;37.404;24.920;2023-05-10T07:36:49;100329.50;;;23.80
70123;BMP280;57489;37.404;24.920;2023-05-10T07:41:49;100310.09;;;23.83
70123;BMP280;57489;37.404;24.920;2023-05-10T07:46:50;100313.53;;;23.84
70123;BMP280;57489;37.404;24.920;2023-05-10T07:51:50;100319.84;;;23.91
70123;BMP280;57489;37.404;24.920;2023-05-10T07:56:50;100316.03;;;23.92
70123;BMP280;57489;37.404;24.920;2023-05-10T08:01:51;100309.63;;;23.97
70123;BMP280;57489;37.404;24.920;2023-05-10T08:06:51;100312.31;;;23.97
70123;BMP280;57489;37.404;24.920;2023-05-10T08:11:52;100309.03;;;24.04
70123;BMP280;57489;37.404;24.920;2023-05-10T08:16:52;100309.56;;;24.09
70123;BMP280;57489;37.404;24.920;2023-05-10T08:21:53;100314.34;;;24.16
70123;BMP280;57489;37.404;24.920;2023-05-10T08:26:53;100316.75;;;24.21
70123;BMP280;57489;37.404;24.920;2023-05-10T08:31:53;100314.16;;;24.24
70123;BMP280;57489;37.404;24.920;2023-05-10T08:36:54;100324.28;;;24.31
70123;BMP280;57489;37.404;24.920;2023-05-10T08:41:58;100330.59;;;24.23
70123;BMP280;57489;37.404;24.920;2023-05-10T08:47:04;100330.06;;;24.02
70123;BMP280;57489;37.404;24.920;2023-05-10T08:52:05;100323.06;;;24.29
70123;BMP280;57489;37.404;24.920;2023-05-10T08:57:07;100330.44;;;24.16
70123;BMP280;57489;37.404;24.920;2023-05-10T09:02:10;100342.28;;;24.15
70123;BMP280;57489;37.404;24.920;2023-05-10T09:07:12;100344.00;;;24.23
70123;BMP280;57489;37.404;24.920;2023-05-10T09:12:13;100322.28;;;24.28
70123;BMP280;57489;37.404;24.920;2023-05-10T09:17:13;100333.00;;;24.28
70123;BMP280;57489;37.404;24.920;2023-05-10T09:22:14;100323.16;;;24.01
70123;BMP280;57489;37.404;24.920;2023-05-10T09:27:14;100332.56;;;24.10
70123;BMP280;57489;37.404;24.920;2023-05-10T09:32:15;100336.63;;;24.04
70123;BMP280;57489;37.404;24.920;2023-05-10T09:37:15;100332.41;;;24.03
70123;BMP280;57489;37.404;24.920;2023-05-10T09:42:18;100331.72;;;24.06
70123;BMP280;57489;37.404;24.920;2023-05-10T09:47:18;100339.50;;;24.11
70123;BMP280;57489;37.404;24.920;2023-05-10T09:52:19;100328.06;;;24.14
70123;BMP280;57489;37.404;24.920;2023-05-10T09:57:23;100320.22;;;24.06
70123;BMP280;57489;37.404;24.920;2023-05-10T10:02:28;100321.44;;;24.24
70123;BMP280;57489;37.404;24.920;2023-05-10T10:07:29;100313.09;;;24.29
70123;BMP280;57489;37.404;24.920;2023-05-10T10:12:29;100310.38;;;24.41
70123;BMP280;57489;37.404;24.920;2023-05-10T10:17:30;100307.47;;;24.50
70123;BMP280;57489;37.404;24.920;2023-05-10T10:22:31;100309.56;;;24.41
70123;BMP280;57489;37.404;24.920;2023-05-10T10:28:20;100307.22;;;24.39
70123;BMP280;57489;37.404;24.920;2023-05-10T10:44:22;100300.81;;;24.28
70123;BMP280;57489;37.404;24.920;2023-05-10T10:49:23;100285.88;;;24.27
70123;BMP280;57489;37.404;24.920;2023-05-10T10:54:29;100296.69;;;24.15
70123;BMP280;57489;37.404;24.920;2023-05-10T10:59:30;100294.63;;;24.24
70123;BMP280;57489;37.404;24.920;2023-05-10T11:04:41;100312.09;;;24.18
70123;BMP280;57489;37.404;24.920;2023-05-10T11:09:42;100314.44;;;24.19
70123;BMP280;57489;37.404;24.920;2023-05-10T11:14:42;100332.81;;;24.21
70123;BMP280;57489;37.404;24.920;2023-05-10T11:20:17;100335.25;;;24.26
70123;BMP280;57489;37.404;24.920;2023-05-10T11:25:18;100336.50;;;24.13
70123;BMP280;57489;37.404;24.920;2023-05-10T11:30:19;100350.41;;;24.03
70123;BMP280;57489;37.404;24.920;2023-05-10T11:35:19;100353.50;;;24.05
70123;BMP280;57489;37.404;24.920;2023-05-10T11:40:23;100351.53;;;24.17
70123;BMP280;57489;37.404;24.920;2023-05-10T11:45:24;100370.91;;;24.11
70123;BMP280;57489;37.404;24.920;2023-05-10T11:50:25;100375.38;;;24.07
70123;BMP280;57489;37.404;24.920;2023-05-10T11:55:25;100374.63;;;24.06
70123;BMP280;57489;37.404;24.920;2023-05-10T12:00:26;100365.09;;;24.09
70123;BMP280;57489;37.404;24.920;2023-05-10T12:05:26;100348.31;;;24.12
70123;BMP280;57489;37.404;24.920;2023-05-10T12:10:27;100341.91;;;24.01
70123;BMP280;57489;37.404;24.920;2023-05-10T12:15:27;100351.63;;;24.05
70123;BMP280;57489;37.404;24.920;2023-05-10T12:20:28;100349.19;;;24.00
70123;BMP280;57489;37.404;24.920;2023-05-10T12:25:33;100369.06;;;23.99
70123;BMP280;57489;37.404;24.920;2023-05-10T12:30:35;100366.63;;;23.94
70123;BMP280;57489;37.404;24.920;2023-05-10T12:35:50;100364.84;;;23.98
70123;BMP280;57489;37.404;24.920;2023-05-10T12:40:51;100362.75;;;23.91
70123;BMP280;57489;37.404;24.920;2023-05-10T12:45:52;100364.97;;;23.89
70123;BMP280;57489;37.404;24.920;2023-05-10T12:50:52;100360.75;;;23.88
70123;BMP280;57489;37.404;24.920;2023-05-10T12:55:53;100358.72;;;23.85
70123;BMP280;57489;37.404;24.920;2023-05-10T13:00:53;100353.38;;;23.85
70123;BMP280;57489;37.404;24.920;2023-05-10T13:05:54;100349.78;;;23.93
70123;BMP280;57489;37.404;24.920;2023-05-10T13:10:54;100334.38;;;23.90
70123;BMP280;57489;37.404;24.920;2023-05-10T13:15:55;100329.03;;;23.90
70123;BMP280;57489;37.404;24.920;2023-05-10T13:20:55;100331.25;;;23.88
70123;BMP280;57489;37.404;24.920;2023-05-10T13:25:56;100343.44;;;23.86
70123;BMP280;57489;37.404;24.920;2023-05-10T13:30:56;100342.25;;;23.83
70123;BMP280;57489;37.404;24.920;2023-05-10T13:35:57;100341.97;;;23.88
70123;BMP280;57489;37.404;24.920;2023-05-10T13:40:57;100336.06;;;23.83
70123;BMP280;57489;37.404;24.920;2023-05-10T13:45:58;100313.63;;;23.87
70123;BMP280;57489;37.404;24.920;2023-05-10T13:50:58;100301.22;;;23.83
70123;BMP280;57489;37.404;24.920;2023-05-10T13:55:58;100289.75;;;23.82
70123;BMP280;57489;37.404;24.920;2023-05-10T14:00:59;100279.78;;;23.83
70123;BMP280;57489;37.404;24.920;2023-05-10T14:05:59;100287.50;;;23.84
70123;BMP280;57489;37.404;24.920;2023-05-10T14:11:00;100275.25;;;23.83
70123;BMP280;57489;37.404;24.920;2023-05-10T14:16:02;100277.13;;;23.83
70123;BMP280;57489;37.404;24.920;2023-05-10T14:21:03;100261.22;;;23.74
70123;BMP280;57489;37.404;24.920;2023-05-10T14:26:04;100247.38;;;23.72
70123;BMP280;57489;37.404;24.920;2023-05-10T14:31:04;100230.84;;;23.70
70123;BMP280;57489;37.404;24.920;2023-05-10T14:36:05;100240.72;;;23.66
70123;BMP280;57489;37.404;24.920;2023-05-10T14:41:06;100244.56;;;23.53
70123;BMP280;57489;37.404;24.920;2023-05-10T14:46:06;100236.88;;;23.51
70123;BMP280;57489;37.404;24.920;2023-05-10T14:51:07;100243.69;;;23.49
70123;BMP280;57489;37.404;24.920;2023-05-10T14:56:07;100252.19;;;23.51
70123;BMP280;57489;37.404;24.920;2023-05-10T15:01:08;100247.03;;;23.74
70123;BMP280;57489;37.404;24.920;2023-05-10T15:06:08;100249.91;;;23.81
70123;BMP280;57489;37.404;24.920;2023-05-10T15:11:09;100247.75;;;23.86
70123;BMP280;57489;37.404;24.920;2023-05-10T15:16:09;100246.50;;;24.00
70123;BMP280;57489;37.404;24.920;2023-05-10T15:21:10;100234.16;;;23.95
70123;BMP280;57489;37.404;24.920;2023-05-10T15:26:10;100237.97;;;23.94
70123;BMP280;57489;37.404;24.920;2023-05-10T15:31:11;100239.63;;;23.99
70123;BMP280;57489;37.404;24.920;2023-05-10T15:36:11;100232.94;;;24.08
70123;BMP280;57489;37.404;24.920;2023-05-10T15:41:12;100229.94;;;23.94
70123;BMP280;57489;37.404;24.920;2023-05-10T15:46:12;100220.22;;;23.89
70123;BMP280;57489;37.404;24.920;2023-05-10T15:51:12;100211.59;;;23.96
70123;BMP280;57489;37.404;24.920;2023-05-10T15:56:13;100213.50;;;23.95
70123;BMP280;57489;37.404;24.920;2023-05-10T16:01:13;100221.00;;;23.90
70123;BMP280;57489;37.404;24.920;2023-05-10T16:06:14;100221.81;;;23.90
70123;BMP280;57489;37.404;24.920;2023-05-10T16:11:14;100222.66;;;23.79
70123;BMP280;57489;37.404;24.920;2023-05-10T16:16:15;100223.59;;;23.71
70123;BMP280;57489;37.404;24.920;2023-05-10T16:21:15;100227.69;;;23.80
70123;BMP280;57489;37.404;24.920;2023-05-10T16:26:16;100218.41;;;23.78
70123;BMP280;57489;37.404;24.920;2023-05-10T16:31:16;100206.31;;;23.68
70123;BMP280;57489;37.404;24.920;2023-05-10T16:36:17;100209.69;;;23.65
70123;BMP280;57489;37.404;24.920;2023-05-10T16:41:17;100201.59;;;23.61
70123;BMP280;57489;37.404;24.920;2023-05-10T16:46:18;100214.34;;;23.52
70123;BMP280;57489;37.404;24.920;2023-05-10T16:51:18;100216.47;;;23.47
70123;BMP280;57489;37.404;24.920;2023-05-10T16:56:18;100219.84;;;23.44
70123;BMP280;57489;37.404;24.920;2023-05-10T17:01:19;100230.50;;;23.40
70123;BMP280;57489;37.404;24.920;2023-05-10T17:06:20;100232.03;;;23.41
70123;BMP280;57489;37.404;24.920;2023-05-10T17:11:20;100237.25;;;23.50
70123;BMP280;57489;37.404;24.920;2023-05-10T17:16:21;100243.03;;;23.52
70123;BMP280;57489;37.404;24.920;2023-05-10T17:21:21;100245.53;;;23.45
70123;BMP280;57489;37.404;24.920;2023-05-10T17:26:21;100261.41;;;23.37
70123;BMP280;57489;37.404;24.920;2023-05-10T17:31:22;100247.38;;;23.28
70123;BMP280;57489;37.404;24.920;2023-05-10T17:36:22;100263.19;;;23.33
70123;BMP280;57489;37.404;24.920;2023-05-10T17:41:23;100257.63;;;23.26
70123;BMP280;57489;37.404;24.920;2023-05-10T17:46:23;100273.69;;;23.26
70123;BMP280;57489;37.404;24.920;2023-05-10T17:51:24;100260.78;;;23.28
70123;BMP280;57489;37.404;24.920;2023-05-10T17:56:24;100282.84;;;23.25
70123;BMP280;57489;37.404;24.920;2023-05-10T18:01:25;100290.06;;;23.09
70123;BMP280;57489;37.404;24.920;2023-05-10T18:06:25;100288.09;;;22.94
70123;BMP280;57489;37.404;24.920;2023-05-10T18:11:26;100291.34;;;22.87
70123;BMP280;57489;37.404;24.920;2023-05-10T18:16:26;100296.13;;;22.94
70123;BMP280;57489;37.404;24.920;2023-05-10T18:21:27;100318.72;;;22.96
70123;BMP280;57489;37.404;24.920;2023-05-10T18:26:27;100298.19;;;23.00
70123;BMP280;57489;37.404;24.920;2023-05-10T18:31:28;100299.22;;;23.08
70123;BMP280;57489;37.404;24.920;2023-05-10T18:36:28;100310.47;;;23.13
70123;BMP280;57489;37.404;24.920;2023-05-10T18:41:29;100307.78;;;23.13
70123;BMP280;57489;37.404;24.920;2023-05-10T18:46:29;100307.66;;;23.10
70123;BMP280;57489;37.404;24.920;2023-05-10T18:51:30;100318.50;;;23.13
70123;BMP280;57489;37.404;24.920;2023-05-10T18:56:30;100327.75;;;23.16
70123;BMP280;57489;37.404;24.920;2023-05-10T19:01:31;100327.03;;;23.19
70123;BMP280;57489;37.404;24.920;2023-05-10T19:06:31;100335.31;;;23.14
70123;BMP280;57489;37.404;24.920;2023-05-10T19:11:32;100337.66;;;23.16
70123;BMP280;57489;37.404;24.920;2023-05-10T19:16:32;100350.50;;;23.10
70123;BMP280;57489;37.404;24.920;2023-05-10T19:21:32;100351.84;;;23.04
70123;BMP280;57489;37.404;24.920;2023-05-10T19:26:33;100359.88;;;23.16
70123;BMP280;57489;37.404;24.920;2023-05-10T19:31:33;100357.63;;;23.18
70123;BMP280;57489;37.404;24.920;2023-05-10T19:36:34;100340.00;;;23.17
70123;BMP280;57489;37.404;24.920;2023-05-10T19:41:34;100332.59;;;23.26
70123;BMP280;57489;37.404;24.920;2023-05-10T19:46:35;100346.47;;;23.28
70123;BMP280;57489;37.404;24.920;2023-05-10T19:51:35;100337.97;;;23.26
70123;BMP280;57489;37.404;24.920;2023-05-10T19:56:36;100338.44;;;23.28
70123;BMP280;57489;37.404;24.920;2023-05-10T20:01:36;100349.22;;;23.32
70123;BMP280;57489;37.404;24.920;2023-05-10T20:06:37;100352.03;;;23.35
70123;BMP280;57489;37.404;24.920;2023-05-10T20:11:38;100361.16;;;23.34
70123;BMP280;57489;37.404;24.920;2023-05-10T20:16:38;100363.78;;;23.47
70123;BMP280;57489;37.404;24.920;2023-05-10T20:21:39;100362.47;;;23.40
70123;BMP280;57489;37.404;24.920;2023-05-10T20:26:39;100356.00;;;23.41
70123;BMP280;57489;37.404;24.920;2023-05-10T20:31:40;100355.69;;;23.43
70123;BMP280;57489;37.404;24.920;2023-05-10T20:36:40;100358.06;;;23.32
70123;BMP280;57489;37.404;24.920;2023-05-10T20:41:41;100369.00;;;23.27
70123;BMP280;57489;37.404;24.920;2023-05-10T20:46:42;100365.44;;;23.23
70123;BMP280;57489;37.404;24.920;2023-05-10T20:51:42;100363.84;;;23.22
70123;BMP280;57489;37.404;24.920;2023-05-10T20:56:43;100363.84;;;23.22
70123;BMP280;57489;37.404;24.920;2023-05-10T21:01:44;100355.03;;;23.22
70123;BMP280;57489;37.404;24.920;2023-05-10T21:06:44;100358.47;;;23.22
70123;BMP280;57489;37.404;24.920;2023-05-10T21:11:45;100352.59;;;23.29
70123;BMP280;57489;37.404;24.920;2023-05-10T21:16:45;100351.03;;;23.28
70123;BMP280;57489;37.404;24.920;2023-05-10T21:21:46;100353.34;;;23.29
70123;BMP280;57489;37.404;24.920;2023-05-10T21:26:46;100344.09;;;23.27
70123;BMP280;57489;37.404;24.920;2023-05-10T21:31:47;100334.84;;;23.24
70123;BMP280;57489;37.404;24.920;2023-05-10T21:36:47;100338.84;;;23.30
70123;BMP280;57489;37.404;24.920;2023-05-10T21:41:48;100334.28;;;23.31
70123;BMP280;57489;37.404;24.920;2023-05-10T21:46:48;100325.25;;;23.23
70123;BMP280;57489;37.404;24.920;2023-05-10T21:51:49;100328.84;;;23.27
70123;BMP280;57489;37.404;24.920;2023-05-10T21:56:49;100333.31;;;22.99
70123;BMP280;57489;37.404;24.920;2023-05-10T22:01:55;100332.69;;;22.77
70123;BMP280;57489;37.404;24.920;2023-05-10T22:06:56;100326.66;;;22.68
70123;BMP280;57489;37.404;24.920;2023-05-10T22:11:58;100322.22;;;22.60
70123;BMP280;57489;37.404;24.920;2023-05-10T22:16:59;100319.75;;;22.55
70123;BMP280;57489;37.404;24.920;2023-05-10T22:22:00;100324.09;;;22.47
70123;BMP280;57489;37.404;24.920;2023-05-10T22:27:04;100327.78;;;22.43
70123;BMP280;57489;37.404;24.920;2023-05-10T22:32:05;100319.97;;;22.38
70123;BMP280;57489;37.404;24.920;2023-05-10T22:37:06;100331.31;;;22.35
70123;BMP280;57489;37.404;24.920;2023-05-10T22:42:14;100327.75;;;22.30
70123;BMP280;57489;37.404;24.920;2023-05-10T22:47:14;100325.31;;;22.25
70123;BMP280;57489;37.404;24.920;2023-05-10T22:52:15;100324.84;;;22.23
70123;BMP280;57489;37.404;24.920;2023-05-10T22:57:15;100323.94;;;22.19
70123;BMP280;57489;37.404;24.920;2023-05-10T23:02:16;100321.94;;;22.16
70123;BMP280;57489;37.404;24.920;2023-05-10T23:07:17;100319.91;;;22.13
70123;BMP280;57489;37.404;24.920;2023-05-10T23:12:17;100307.19;;;22.10
70123;BMP280;57489;37.404;24.920;2023-05-10T23:17:18;100303.31;;;22.08
70123;BMP280;57489;37.404;24.920;2023-05-10T23:22:18;100309.00;;;22.06
70123;BMP280;57489;37.404;24.920;2023-05-10T23:27:19;100304.75;;;22.05
70123;BMP280;57489;37.404;24.920;2023-05-10T23:32:19;100299.31;;;22.01
70123;BMP280;57489;37.404;24.920;2023-05-10T23:37:20;100287.81;;;22.01
70123;BMP280;57489;37.404;24.920;2023-05-10T23:42:20;100291.59;;;22.00
70123;BMP280;57489;37.404;24.920;2023-05-10T23:47:21;100280.00;;;21.96
70123;BMP280;57489;37.404;24.920;2023-05-10T23:52:21;100268.22;;;21.97
70123;BMP280;57489;37.404;24.920;2023-05-10T23:57:22;100264.31;;;21.94
